Time;durP1;ratioP1;P1;durP2;ratioP2;P2;SDS_P1;SDS_P2;PMS_P1;PMS_P2;Temp;Humidity;BMP_temperature;BMP_pressure;BME280_temperature;BME280_humidity;BME280_pressure;Samples;Min_cycle;Max_cycle;Signal;HPM_P1;HPM_P2
2021/12/17 00:01:33;;;;;;;11.30;8.97;;;6.90;99.90;;;;;;5171310;27;20521;-61
2021/12/17 00:04:04;;;;;;;12.17;9.57;;;7.00;99.90;;;;;;5171244;27;20249;-61
2021/12/17 00:06:42;;;;;;;11.60;9.47;;;7.00;99.90;;;;;;5171921;27;20254;-63
2021/12/17 00:09:10;;;;;;;10.47;8.43;;;7.00;99.90;;;;;;5185525;27;20249;-61
2021/12/17 00:11:37;;;;;;;11.47;9.10;;;7.10;99.90;;;;;;5192935;27;20200;-62
2021/12/17 00:14:04;;;;;;;11.37;9.13;;;7.10;99.90;;;;;;5175499;27;20287;-63
2021/12/17 00:16:36;;;;;;;11.13;8.90;;;7.20;99.90;;;;;;5182737;27;20209;-62
2021/12/17 00:19:17;;;;;;;12.20;8.83;;;7.40;99.90;;;;;;5190835;27;20216;-63
2021/12/17 00:44:18;;;;;;;13.47;9.70;;;7.80;99.90;;;;;;5177299;27;20249;-61
2021/12/17 00:49:35;;;;;;;10.73;9.07;;;7.90;99.90;;;;;;5177160;27;20269;-61
2021/12/17 00:52:02;;;;;;;11.33;8.93;;;8.00;99.90;;;;;;5177118;27;20205;-61
2021/12/17 00:54:34;;;;;;;12.23;8.83;;;8.10;99.90;;;;;;5176818;27;20232;-61
2021/12/17 00:57:06;;;;;;;12.87;9.23;;;8.10;99.90;;;;;;5176925;27;20688;-60
2021/12/17 00:59:33;;;;;;;12.33;9.13;;;8.10;99.90;;;;;;5176945;27;20205;-60
2021/12/17 01:02:04;;;;;;;11.60;8.97;;;8.10;99.90;;;;;;5177020;27;20213;-61
2021/12/17 01:04:30;;;;;;;11.27;9.13;;;8.10;99.90;;;;;;5176908;27;20309;-60
2021/12/17 01:06:57;;;;;;;11.73;8.77;;;8.00;99.90;;;;;;5176707;27;20206;-60
2021/12/17 01:09:26;;;;;;;11.60;9.00;;;8.00;99.90;;;;;;5176811;27;20202;-60
2021/12/17 01:11:54;;;;;;;11.87;9.03;;;8.10;99.90;;;;;;5176872;27;20202;-60
2021/12/17 01:14:22;;;;;;;11.33;9.00;;;8.10;99.90;;;;;;5176502;27;20777;-60
2021/12/17 01:16:51;;;;;;;12.03;9.57;;;8.10;99.90;;;;;;5176490;27;20220;-60
2021/12/17 01:19:28;;;;;;;11.53;9.47;;;8.10;99.90;;;;;;5176211;27;20232;-61
2021/12/17 01:22:15;;;;;;;12.83;9.67;;;8.00;99.90;;;;;;5176885;27;20224;-61
2021/12/17 01:24:48;;;;;;;13.37;8.87;;;7.90;99.90;;;;;;5176438;27;20665;-60
2021/12/17 01:35:30;;;;;;;13.63;10.00;;;7.80;99.90;;;;;;5176357;27;20577;-60
2021/12/17 01:43:24;;;;;;;13.13;9.70;;;7.60;99.90;;;;;;5176216;27;20213;-59
2021/12/17 01:45:52;;;;;;;12.13;8.90;;;7.80;99.90;;;;;;5176054;27;20206;-59
2021/12/17 01:48:25;;;;;;;10.27;8.23;;;7.80;99.90;;;;;;5175936;27;20581;-61
2021/12/17 01:56:37;;;;;;;10.63;9.13;;;8.00;99.90;;;;;;5175905;27;20265;-60
2021/12/17 01:59:26;;;;;;;13.60;8.73;;;7.70;99.90;;;;;;5175371;27;20220;-60
2021/12/17 02:02:01;;;;;;;10.83;9.10;;;7.20;99.90;;;;;;5175762;27;20198;-60
2021/12/17 02:04:27;;;;;;;11.60;9.00;;;6.80;99.90;;;;;;5175705;27;20248;-60
2021/12/17 02:06:54;;;;;;;11.50;9.03;;;6.60;99.90;;;;;;5175622;27;20212;-60
2021/12/17 02:09:57;;;;;;;12.57;9.33;;;6.80;99.90;;;;;;5175279;27;20216;-60
2021/12/17 02:12:43;;;;;;;10.90;8.47;;;6.90;99.90;;;;;;5175246;27;20205;-61
2021/12/17 02:29:32;;;;;;;10.63;8.33;;;7.80;99.90;;;;;;5175027;27;20197;-60
2021/12/17 02:32:01;;;;;;;11.23;8.53;;;7.90;99.90;;;;;;5175103;27;20682;-59
2021/12/17 02:34:45;;;;;;;11.03;8.90;;;7.90;99.90;;;;;;5174920;27;20221;-59
2021/12/17 02:37:17;;;;;;;10.03;8.30;;;8.00;99.90;;;;;;5175087;27;20237;-59
2021/12/17 02:40:02;;;;;;;10.27;7.80;;;8.10;99.90;;;;;;5174762;27;20201;-59
2021/12/17 02:45:30;;;;;;;10.43;8.40;;;8.20;99.90;;;;;;5174890;27;20208;-60
2021/12/17 02:45:34;;;;;;;11.80;8.53;;;7.90;99.90;;;;;;5174769;27;20334;-60
2021/12/17 02:48:05;;;;;;;10.93;8.57;;;7.70;99.90;;;;;;5174836;27;20661;-59
2021/12/17 02:50:34;;;;;;;11.30;8.13;;;7.70;99.90;;;;;;5174649;27;20282;-62
2021/12/17 02:53:07;;;;;;;10.37;8.23;;;7.70;99.90;;;;;;5174843;27;20229;-60
2021/12/17 02:55:37;;;;;;;10.33;7.97;;;7.70;99.90;;;;;;5174990;27;20245;-59
2021/12/17 02:58:05;;;;;;;12.80;9.07;;;7.80;99.90;;;;;;5174809;27;20226;-59
2021/12/17 03:00:33;;;;;;;10.13;8.70;;;7.80;99.90;;;;;;5174443;27;20721;-61
2021/12/17 03:03:02;;;;;;;12.37;9.23;;;7.80;99.90;;;;;;5174716;27;20229;-61
2021/12/17 03:05:29;;;;;;;11.00;9.17;;;7.90;99.90;;;;;;5174632;27;20205;-59
2021/12/17 03:07:57;;;;;;;12.67;9.70;;;7.90;99.90;;;;;;5174516;27;20205;-59
2021/12/17 03:10:25;;;;;;;14.20;9.50;;;8.10;99.90;;;;;;5174508;27;20208;-59
2021/12/17 03:12:57;;;;;;;11.43;9.20;;;8.20;99.90;;;;;;5174564;27;20221;-59
2021/12/17 03:15:32;;;;;;;10.60;9.10;;;8.20;99.90;;;;;;5174481;27;20202;-60
2021/12/17 03:23:31;;;;;;;10.93;8.40;;;8.10;99.90;;;;;;5174551;27;20225;-60
2021/12/17 03:26:01;;;;;;;11.77;8.77;;;7.50;99.90;;;;;;5174464;27;20210;-60
2021/12/17 03:28:28;;;;;;;11.30;9.03;;;7.20;99.90;;;;;;5174386;27;20246;-60
2021/12/17 03:30:56;;;;;;;12.17;9.63;;;7.30;99.90;;;;;;5174363;27;20201;-61
2021/12/17 03:33:23;;;;;;;10.97;9.03;;;7.30;99.90;;;;;;5175313;27;20221;-59
2021/12/17 03:35:50;;;;;;;11.53;9.50;;;7.30;99.90;;;;;;5174537;27;20227;-60
2021/12/17 03:38:17;;;;;;;11.67;9.23;;;7.50;99.90;;;;;;5174284;27;20232;-59
2021/12/17 03:40:46;;;;;;;11.77;9.03;;;7.70;99.90;;;;;;5174091;27;20566;-59
2021/12/17 03:43:22;;;;;;;11.53;9.20;;;7.80;99.90;;;;;;5171099;22;20220;-57
2021/12/17 03:45:49;;;;;;;12.37;9.10;;;7.90;99.90;;;;;;5083248;28;20663;-57
2021/12/17 03:48:16;;;;;;;14.10;8.93;;;8.10;99.90;;;;;;5091920;28;20258;-57
2021/12/17 03:50:43;;;;;;;10.90;8.70;;;8.20;99.90;;;;;;5091562;28;20200;-58
2021/12/17 03:53:10;;;;;;;11.30;8.47;;;8.20;99.90;;;;;;5092104;28;20244;-57
2021/12/17 03:55:37;;;;;;;10.13;8.17;;;8.20;99.90;;;;;;5091601;28;20207;-58
2021/12/17 03:58:04;;;;;;;11.77;8.97;;;8.10;99.90;;;;;;5091815;28;20665;-57
2021/12/17 04:00:32;;;;;;;13.00;9.00;;;8.10;99.90;;;;;;5091596;28;20200;-58
2021/12/17 04:02:59;;;;;;;10.03;8.63;;;8.10;99.90;;;;;;5091768;28;20232;-58
2021/12/17 04:05:26;;;;;;;9.73;8.10;;;8.20;99.90;;;;;;5095353;28;20281;-58
2021/12/17 04:07:53;;;;;;;11.83;8.90;;;8.30;99.90;;;;;;5095887;28;20204;-57
2021/12/17 04:10:21;;;;;;;10.07;8.40;;;8.40;99.90;;;;;;5095105;28;20204;-58
2021/12/17 04:12:54;;;;;;;11.23;8.37;;;8.50;99.90;;;;;;5095437;28;20231;-58
2021/12/17 04:15:30;;;;;;;12.47;8.93;;;8.60;99.90;;;;;;5095282;28;20204;-56
2021/12/17 04:17:59;;;;;;;14.40;9.67;;;8.60;99.90;;;;;;5095194;28;20666;-57
2021/12/17 04:20:26;;;;;;;11.23;8.80;;;8.60;99.90;;;;;;5095021;28;20211;-57
2021/12/17 04:22:52;;;;;;;14.60;10.00;;;8.70;99.90;;;;;;5094998;28;20231;-56
2021/12/17 04:25:19;;;;;;;12.70;8.43;;;8.70;99.90;;;;;;5095221;28;20208;-58
2021/12/17 04:27:46;;;;;;;9.87;8.70;;;8.80;99.90;;;;;;5095386;28;20204;-57
2021/12/17 04:30:13;;;;;;;12.00;9.30;;;8.80;99.90;;;;;;5095165;28;20207;-57
2021/12/17 04:32:39;;;;;;;9.80;8.03;;;8.80;99.90;;;;;;5094889;28;20204;-57
2021/12/17 04:35:08;;;;;;;11.97;8.63;;;8.70;99.90;;;;;;5095020;28;20247;-57
2021/12/17 04:37:35;;;;;;;10.50;8.80;;;8.50;99.90;;;;;;5095078;28;20293;-56
2021/12/17 04:40:02;;;;;;;9.80;8.40;;;8.40;99.90;;;;;;5095113;28;20204;-57
2021/12/17 04:42:37;;;;;;;10.00;8.13;;;7.90;99.90;;;;;;5094744;28;20208;-57
2021/12/17 04:45:04;;;;;;;10.47;8.30;;;7.80;99.90;;;;;;5094897;28;20207;-57
2021/12/17 04:58:29;;;;;;;11.17;9.43;;;7.70;99.90;;;;;;5094463;28;20290;-58
2021/12/17 05:00:58;;;;;;;9.97;8.30;;;7.80;99.90;;;;;;5094442;28;20680;-58
2021/12/17 05:03:24;;;;;;;10.63;8.47;;;7.90;99.90;;;;;;5094507;28;20596;-57
2021/12/17 05:05:52;;;;;;;10.40;8.80;;;7.80;99.90;;;;;;5094274;28;20215;-57
2021/12/17 05:08:22;;;;;;;11.07;8.80;;;7.90;99.90;;;;;;5094253;28;20202;-58
2021/12/17 05:11:16;;;;;;;9.87;8.27;;;8.00;99.90;;;;;;5093923;28;20740;-58
2021/12/17 05:19:20;;;;;;;13.60;9.33;;;8.20;99.90;;;;;;5093824;28;20706;-58
2021/12/17 05:21:48;;;;;;;14.37;8.83;;;8.20;99.90;;;;;;5094032;28;20671;-58
2021/12/17 05:24:15;;;;;;;11.37;9.07;;;8.30;99.90;;;;;;5093930;28;20220;-58
2021/12/17 05:26:41;;;;;;;10.20;8.27;;;8.40;99.90;;;;;;5093874;28;20230;-58
2021/12/17 05:29:08;;;;;;;11.70;9.00;;;8.40;99.90;;;;;;5093317;28;20667;-57
2021/12/17 05:31:35;;;;;;;10.53;8.57;;;8.40;99.90;;;;;;5093655;28;20265;-57
2021/12/17 05:34:01;;;;;;;10.60;8.77;;;8.50;99.90;;;;;;5093631;28;20224;-58
2021/12/17 05:36:28;;;;;;;12.87;7.90;;;8.50;99.90;;;;;;5093696;28;20627;-58
2021/12/17 05:38:56;;;;;;;9.07;7.67;;;8.30;99.90;;;;;;5093573;28;20224;-58
2021/12/17 05:41:23;;;;;;;10.47;7.70;;;8.10;99.90;;;;;;5094111;28;20231;-57
2021/12/17 05:43:55;;;;;;;14.23;8.37;;;8.00;99.90;;;;;;5093431;28;20282;-58
2021/12/17 05:46:36;;;;;;;12.63;8.30;;;8.00;99.90;;;;;;5093727;28;20204;-58
2021/12/17 05:49:04;;;;;;;9.87;8.07;;;8.00;99.90;;;;;;5093194;28;20705;-58
2021/12/17 05:51:30;;;;;;;14.20;8.40;;;8.10;99.90;;;;;;5093307;28;20671;-57
2021/12/17 05:53:59;;;;;;;10.43;8.30;;;8.00;99.90;;;;;;5093443;28;20228;-58
2021/12/17 05:56:25;;;;;;;10.87;8.40;;;8.10;99.90;;;;;;5093356;28;20283;-58
2021/12/17 05:58:52;;;;;;;12.80;9.70;;;8.10;99.90;;;;;;5093087;28;20235;-58
2021/12/17 06:01:19;;;;;;;16.73;13.33;;;8.10;99.90;;;;;;5093339;28;20240;-57
2021/12/17 06:03:46;;;;;;;12.37;9.83;;;8.20;99.90;;;;;;5092939;28;20228;-57
2021/12/17 06:06:13;;;;;;;12.67;9.17;;;8.20;99.90;;;;;;5093160;28;20200;-58
2021/12/17 06:08:39;;;;;;;10.27;8.40;;;8.30;99.90;;;;;;5092900;28;20656;-58
2021/12/17 06:11:07;;;;;;;9.27;8.07;;;8.30;99.90;;;;;;5092477;28;20260;-58
2021/12/17 06:13:34;;;;;;;10.23;7.40;;;8.20;99.90;;;;;;5092652;28;20231;-58
2021/12/17 06:16:01;;;;;;;8.10;6.93;;;8.30;99.90;;;;;;5092813;28;20544;-58
2021/12/17 06:18:28;;;;;;;9.50;6.97;;;8.30;99.90;;;;;;5092866;28;20235;-57
2021/12/17 06:20:54;;;;;;;7.73;6.63;;;8.40;99.90;;;;;;5093035;28;20648;-58
2021/12/17 06:23:21;;;;;;;8.90;6.73;;;8.40;99.90;;;;;;5092773;28;20285;-58
2021/12/17 06:25:48;;;;;;;10.30;7.67;;;8.30;99.90;;;;;;5092670;28;20208;-57
2021/12/17 06:28:16;;;;;;;8.17;6.70;;;8.30;99.90;;;;;;5092473;28;20204;-58
2021/12/17 06:30:43;;;;;;;7.67;6.57;;;8.40;99.90;;;;;;5092536;28;20236;-57
2021/12/17 06:33:10;;;;;;;9.40;7.90;;;8.40;99.90;;;;;;5092661;28;20263;-58
2021/12/17 06:35:37;;;;;;;7.03;6.17;;;8.40;99.90;;;;;;5092833;28;20212;-58
2021/12/17 06:38:04;;;;;;;9.20;7.93;;;8.50;99.90;;;;;;5092620;28;20208;-58
2021/12/17 06:40:31;;;;;;;7.10;6.40;;;8.60;99.90;;;;;;5092328;28;20675;-57
2021/12/17 06:42:58;;;;;;;7.67;6.70;;;8.60;99.90;;;;;;5092104;28;20761;-58
2021/12/17 06:45:40;;;;;;;8.10;6.33;;;8.60;99.90;;;;;;5092618;28;20212;-57
2021/12/17 06:48:07;;;;;;;7.97;5.50;;;8.60;99.90;;;;;;5092226;28;20667;-57
2021/12/17 06:59:03;;;;;;;7.30;4.40;;;8.50;99.90;;;;;;5075999;28;20286;-58
2021/12/17 07:07:59;;;;;;;5.87;4.60;;;8.00;99.90;;;;;;5092227;28;20209;-58
2021/12/17 07:10:17;;;;;;;5.23;4.50;;;7.80;99.90;;;;;;5091750;28;20572;-57
2021/12/17 07:19:08;;;;;;;7.00;5.43;;;7.00;99.90;;;;;;5092194;28;20204;-56
2021/12/17 07:21:28;;;;;;;6.77;5.47;;;6.80;99.90;;;;;;5091577;28;20576;-58
2021/12/17 07:32:33;;;;;;;6.90;5.27;;;6.50;99.90;;;;;;5092053;28;20196;-57
2021/12/17 07:40:38;;;;;;;7.33;6.43;;;6.30;99.90;;;;;;5095817;28;20285;-58
2021/12/17 07:43:12;;;;;;;10.63;6.97;;;6.30;99.90;;;;;;5095679;28;20322;-57
2021/12/17 07:45:39;;;;;;;8.10;7.30;;;6.30;99.90;;;;;;5096236;28;20212;-56
2021/12/17 07:48:06;;;;;;;9.73;6.30;;;6.40;99.90;;;;;;5095898;28;20695;-56
2021/12/17 07:50:35;;;;;;;8.93;7.17;;;6.40;99.90;;;;;;5095665;28;20253;-56
2021/12/17 07:53:02;;;;;;;7.77;6.23;;;6.40;99.90;;;;;;5095643;28;20266;-57
2021/12/17 07:55:29;;;;;;;8.00;6.60;;;6.30;99.90;;;;;;5096084;28;20640;-57
2021/12/17 07:57:56;;;;;;;7.97;6.30;;;6.30;99.90;;;;;;5095999;28;20230;-57
2021/12/17 08:00:22;;;;;;;8.13;6.47;;;6.40;99.90;;;;;;5095737;28;20228;-57
2021/12/17 08:02:49;;;;;;;7.60;6.37;;;6.50;99.90;;;;;;5095533;28;20224;-57
2021/12/17 08:05:16;;;;;;;9.67;6.57;;;6.50;99.90;;;;;;5095621;28;20230;-56
2021/12/17 08:07:44;;;;;;;9.17;7.10;;;6.60;99.90;;;;;;5095325;28;20211;-57
2021/12/17 08:10:11;;;;;;;10.80;8.60;;;6.70;99.90;;;;;;5095319;28;20575;-57
2021/12/17 08:12:38;;;;;;;10.07;8.10;;;6.70;99.90;;;;;;5095449;28;20223;-57
2021/12/17 08:15:09;;;;;;;9.03;7.73;;;6.80;99.90;;;;;;5095399;28;20683;-56
2021/12/17 08:17:50;;;;;;;12.83;10.03;;;6.80;99.90;;;;;;5095269;28;20215;-58
2021/12/17 08:26:01;;;;;;;10.60;8.37;;;7.00;99.90;;;;;;5068867;28;20223;-57
2021/12/17 08:28:39;;;;;;;8.23;6.57;;;7.10;99.90;;;;;;5095119;28;20719;-57
2021/12/17 08:31:05;;;;;;;9.20;7.10;;;7.10;99.90;;;;;;5095484;28;20206;-57
2021/12/17 08:33:32;;;;;;;7.03;6.00;;;7.20;99.90;;;;;;5095211;28;20231;-59
2021/12/17 08:35:59;;;;;;;9.13;6.87;;;7.20;99.90;;;;;;5095514;28;20266;-57
2021/12/17 08:38:27;;;;;;;9.20;7.50;;;7.30;99.90;;;;;;5095181;28;20208;-59
2021/12/17 08:40:54;;;;;;;8.87;7.27;;;7.30;99.90;;;;;;5095089;28;20273;-56
2021/12/17 08:43:22;;;;;;;9.27;7.40;;;7.40;99.90;;;;;;5094826;28;20288;-57
2021/12/17 08:45:49;;;;;;;10.60;6.83;;;7.40;99.90;;;;;;5094982;28;20204;-58
2021/12/17 08:48:16;;;;;;;9.47;7.00;;;7.40;99.90;;;;;;5094634;28;20211;-58
2021/12/17 08:50:43;;;;;;;7.03;5.90;;;7.50;99.90;;;;;;5094348;28;20257;-57
2021/12/17 08:53:09;;;;;;;7.20;6.40;;;7.50;99.90;;;;;;5094793;28;20711;-58
2021/12/17 08:55:37;;;;;;;8.93;6.23;;;7.60;99.90;;;;;;5094988;28;20569;-59
2021/12/17 08:58:04;;;;;;;7.17;6.07;;;7.60;99.90;;;;;;5094953;28;20212;-57
2021/12/17 09:00:31;;;;;;;8.53;5.67;;;7.70;99.90;;;;;;5094450;28;20220;-57
2021/12/17 09:02:59;;;;;;;6.77;6.07;;;7.70;99.90;;;;;;5094508;28;20232;-57
2021/12/17 09:05:26;;;;;;;6.40;5.53;;;7.70;99.90;;;;;;5094379;28;20322;-57
2021/12/17 09:07:53;;;;;;;6.07;5.10;;;7.70;99.90;;;;;;5094392;28;20305;-58
2021/12/17 09:10:22;;;;;;;8.20;6.27;;;7.70;99.90;;;;;;5094061;28;20208;-57
2021/12/17 09:12:50;;;;;;;8.47;6.50;;;7.80;99.90;;;;;;5094304;28;20228;-58
2021/12/17 09:15:17;;;;;;;6.83;5.80;;;7.90;99.90;;;;;;5094298;28;20675;-58
2021/12/17 09:17:44;;;;;;;7.03;6.20;;;7.90;99.90;;;;;;5094407;28;20298;-58
2021/12/17 09:20:11;;;;;;;10.40;7.00;;;7.90;99.90;;;;;;5093867;28;20227;-58
2021/12/17 09:22:38;;;;;;;6.40;5.27;;;7.90;99.90;;;;;;5094361;28;20200;-57
2021/12/17 09:25:06;;;;;;;10.37;7.57;;;7.90;99.90;;;;;;5094336;28;20200;-59
2021/12/17 09:27:33;;;;;;;7.33;6.17;;;7.90;99.90;;;;;;5094954;28;20204;-63
2021/12/17 09:30:01;;;;;;;8.67;6.63;;;7.90;99.90;;;;;;5095175;28;20200;-62
2021/12/17 09:32:28;;;;;;;7.53;6.43;;;8.10;99.90;;;;;;5094712;28;20234;-62
2021/12/17 09:34:55;;;;;;;7.33;5.40;;;8.10;99.90;;;;;;5094948;28;20208;-62
2021/12/17 09:37:21;;;;;;;6.13;5.10;;;8.20;99.90;;;;;;5095358;28;20211;-63
2021/12/17 09:39:48;;;;;;;6.27;4.80;;;8.40;99.90;;;;;;5094390;28;20231;-63
2021/12/17 09:42:15;;;;;;;6.97;5.43;;;8.50;99.90;;;;;;5094606;28;20216;-61
2021/12/17 09:44:42;;;;;;;6.00;5.17;;;8.60;99.90;;;;;;5117512;22;20305;-54
2021/12/17 09:47:10;;;;;;;6.50;5.17;;;8.50;99.90;;;;;;5093420;28;20556;-54
2021/12/17 09:49:38;;;;;;;5.73;4.80;;;8.50;99.90;;;;;;5093690;28;20196;-55
2021/12/17 09:52:06;;;;;;;6.47;5.00;;;8.60;99.90;;;;;;5093766;28;20718;-55
2021/12/17 09:54:32;;;;;;;8.40;5.40;;;8.70;99.90;;;;;;5093809;28;20232;-54
2021/12/17 09:56:59;;;;;;;5.70;4.67;;;8.80;99.90;;;;;;5094005;28;20278;-54
2021/12/17 09:59:26;;;;;;;6.87;5.70;;;8.80;99.90;;;;;;5093330;28;20224;-54
2021/12/17 10:01:53;;;;;;;8.47;6.50;;;8.90;99.90;;;;;;5092680;28;20212;-54
2021/12/17 10:04:27;;;;;;;8.87;6.33;;;8.80;99.90;;;;;;5093087;28;20224;-54
2021/12/17 10:07:19;;;;;;;7.87;6.27;;;8.80;99.90;;;;;;5093549;28;20228;-54
2021/12/17 10:09:47;;;;;;;7.90;6.20;;;8.70;99.90;;;;;;5093456;28;20200;-54
2021/12/17 10:12:16;;;;;;;7.83;6.47;;;8.60;99.90;;;;;;5093526;28;20679;-54
2021/12/17 10:14:43;;;;;;;8.33;6.57;;;8.40;99.90;;;;;;5093284;28;20235;-54
2021/12/17 10:17:11;;;;;;;7.53;6.40;;;8.10;99.90;;;;;;5093492;28;20204;-54
2021/12/17 10:19:46;;;;;;;7.57;6.03;;;8.10;99.90;;;;;;5092823;28;20220;-54
2021/12/17 10:22:15;;;;;;;7.67;6.80;;;8.10;99.90;;;;;;5093035;28;20218;-54
2021/12/17 10:24:58;;;;;;;8.30;6.53;;;8.00;99.90;;;;;;5092852;28;20229;-54
2021/12/17 10:27:27;;;;;;;8.93;5.73;;;8.10;99.90;;;;;;5092918;28;20200;-54
2021/12/17 10:29:54;;;;;;;6.97;5.73;;;8.10;99.90;;;;;;5092515;28;20204;-53
2021/12/17 10:32:24;;;;;;;6.33;5.63;;;8.00;99.90;;;;;;5093168;28;20201;-54
2021/12/17 10:35:06;;;;;;;7.57;6.27;;;7.80;99.90;;;;;;5090993;28;20443;-61
2021/12/17 10:37:35;;;;;;;7.33;5.93;;;7.70;99.90;;;;;;5091610;28;20446;-57
2021/12/17 10:40:18;;;;;;;8.37;5.67;;;7.80;99.90;;;;;;5090524;28;20310;-60
2021/12/17 10:42:54;;;;;;;8.73;6.57;;;7.90;99.90;;;;;;5091751;28;20286;-57
2021/12/17 10:45:26;;;;;;;8.17;6.17;;;8.10;99.90;;;;;;5090056;28;20208;-57
2021/12/17 10:51:20;;;;;;;7.07;5.50;;;8.50;99.90;;;;;;5089147;28;20537;-58
2021/12/17 10:53:54;;;;;;;6.63;4.80;;;8.60;99.90;;;;;;5089002;28;20273;-56
2021/12/17 10:56:21;;;;;;;5.73;5.03;;;8.80;99.90;;;;;;5089273;28;20658;-57
2021/12/17 10:58:57;;;;;;;5.17;4.33;;;8.90;99.90;;;;;;5089327;28;20215;-58
2021/12/17 11:01:35;;;;;;;6.40;4.47;;;9.00;99.90;;;;;;5089392;28;20208;-58
2021/12/17 11:04:07;;;;;;;5.77;5.17;;;9.10;99.90;;;;;;5089707;28;20591;-57
2021/12/17 11:06:47;;;;;;;7.07;4.60;;;9.20;99.90;;;;;;5089154;28;20200;-56
2021/12/17 11:09:36;;;;;;;5.33;4.83;;;9.20;99.90;;;;;;5089091;28;20234;-58
2021/12/17 11:12:07;;;;;;;5.30;4.77;;;9.10;99.90;;;;;;5089224;28;20567;-58
2021/12/17 11:14:35;;;;;;;5.73;5.00;;;9.10;99.90;;;;;;5089347;28;20314;-56
2021/12/17 11:17:02;;;;;;;6.03;5.07;;;9.20;99.90;;;;;;5089064;28;20617;-57
2021/12/17 11:19:31;;;;;;;6.03;5.43;;;9.20;99.90;;;;;;5088517;28;20205;-57
2021/12/17 11:21:59;;;;;;;6.53;5.83;;;9.30;99.90;;;;;;5088931;28;20204;-56
2021/12/17 11:24:26;;;;;;;6.53;5.07;;;9.50;99.90;;;;;;5089004;28;20231;-57
2021/12/17 11:26:53;;;;;;;5.87;5.27;;;9.60;99.90;;;;;;5088865;28;20204;-58
2021/12/17 11:29:20;;;;;;;6.90;5.60;;;9.60;99.90;;;;;;5088766;28;20221;-60
2021/12/17 11:31:48;;;;;;;5.80;4.90;;;9.60;99.90;;;;;;5088733;28;20283;-57
2021/12/17 11:34:18;;;;;;;9.17;6.47;;;9.50;99.90;;;;;;5088715;28;20666;-57
2021/12/17 11:36:45;;;;;;;5.73;5.10;;;9.50;99.90;;;;;;5088651;28;20239;-58
2021/12/17 11:39:22;;;;;;;5.60;4.50;;;9.60;99.90;;;;;;5089330;28;20196;-58
2021/12/17 11:41:55;;;;;;;5.33;4.37;;;9.80;99.90;;;;;;5089076;28;20659;-58
2021/12/17 11:44:28;;;;;;;6.10;4.53;;;9.80;99.90;;;;;;5089099;28;20224;-58
2021/12/17 11:47:02;;;;;;;5.30;4.57;;;9.80;99.90;;;;;;5089960;28;20204;-58
2021/12/17 11:49:34;;;;;;;5.67;4.93;;;9.90;99.90;;;;;;5089133;28;20235;-59
2021/12/17 11:52:01;;;;;;;5.60;4.40;;;9.90;99.90;;;;;;5089653;28;20299;-61
2021/12/17 11:54:33;;;;;;;5.67;5.07;;;10.00;99.90;;;;;;5088596;28;20235;-60
2021/12/17 11:57:06;;;;;;;5.60;4.53;;;10.00;99.90;;;;;;5089773;28;20536;-60
2021/12/17 11:59:39;;;;;;;5.00;4.50;;;10.00;99.90;;;;;;5089318;28;20295;-58
2021/12/17 12:02:11;;;;;;;4.93;3.90;;;10.10;99.90;;;;;;5077731;28;20216;-60
2021/12/17 12:04:47;;;;;;;5.53;4.43;;;10.10;99.90;;;;;;5075889;28;20224;-59
2021/12/17 12:07:16;;;;;;;4.60;3.90;;;10.20;99.90;;;;;;5074371;28;20216;-59
2021/12/17 12:10:02;;;;;;;5.07;4.57;;;10.20;99.90;;;;;;5074341;28;20235;-59
2021/12/17 12:12:32;;;;;;;5.10;4.10;;;10.30;99.90;;;;;;5073865;28;20240;-59
2021/12/17 12:15:43;;;;;;;5.50;4.43;;;10.20;99.90;;;;;;5074829;28;20224;-59
2021/12/17 12:18:13;;;;;;;4.10;3.70;;;10.30;99.90;;;;;;5074798;28;20212;-59
2021/12/17 12:20:57;;;;;;;6.27;4.70;;;10.40;99.90;;;;;;5074063;28;20242;-59
2021/12/17 12:23:40;;;;;;;5.40;4.50;;;10.40;99.90;;;;;;5074009;28;20228;-59
2021/12/17 12:26:16;;;;;;;4.60;4.10;;;10.40;99.90;;;;;;5061404;28;20664;-60
2021/12/17 12:28:58;;;;;;;5.70;5.20;;;10.40;99.90;;;;;;5074094;28;20211;-59
2021/12/17 12:31:50;;;;;;;6.43;5.30;;;10.40;99.90;;;;;;5073935;28;20250;-59
2021/12/17 12:34:19;;;;;;;5.28;4.78;;;10.50;99.90;;;;;;5065653;28;20446;-64
2021/12/17 12:36:52;;;;;;;5.77;4.97;;;10.60;99.90;;;;;;5053803;28;20576;-63
2021/12/17 12:39:20;;;;;;;5.37;4.00;;;10.60;99.90;;;;;;5071900;28;20193;-64
2021/12/17 12:41:57;;;;;;;7.00;5.87;;;10.60;99.90;;;;;;5073948;28;20212;-63
2021/12/17 12:44:57;;;;;;;6.63;5.50;;;10.60;99.90;;;;;;5073860;28;20237;-61
2021/12/17 12:47:40;;;;;;;4.80;4.30;;;10.60;99.90;;;;;;5073886;28;20208;-64
2021/12/17 12:50:10;;;;;;;4.27;3.87;;;10.70;99.90;;;;;;5073435;28;20254;-62
2021/12/17 12:52:40;;;;;;;7.17;4.07;;;10.80;99.90;;;;;;5074163;28;20205;-62
2021/12/17 12:55:11;;;;;;;4.80;4.17;;;10.70;99.90;;;;;;5073211;28;20215;-63
2021/12/17 12:57:41;;;;;;;5.67;4.17;;;10.60;99.90;;;;;;5073991;28;20201;-60
2021/12/17 13:00:12;;;;;;;4.77;4.17;;;10.60;99.90;;;;;;5073710;28;20205;-65
2021/12/17 13:02:39;;;;;;;5.23;4.43;;;10.50;99.90;;;;;;5074188;28;20259;-64
2021/12/17 13:05:08;;;;;;;5.97;4.07;;;10.40;99.90;;;;;;5073909;28;20223;-64
2021/12/17 13:07:37;;;;;;;4.80;4.23;;;10.30;99.90;;;;;;5073689;28;20270;-65
2021/12/17 13:10:12;;;;;;;4.73;4.23;;;10.20;99.90;;;;;;5073704;28;20236;-64
2021/12/17 13:12:47;;;;;;;5.83;4.47;;;9.90;99.90;;;;;;5073104;28;20208;-65
2021/12/17 13:15:31;;;;;;;5.53;4.77;;;9.80;99.90;;;;;;5074039;28;20200;-60
2021/12/17 13:23:38;;;;;;;6.83;5.20;;;9.60;99.90;;;;;;5060027;28;20216;-58
2021/12/17 13:26:07;;;;;;;6.13;5.03;;;9.50;99.90;;;;;;5073156;28;20232;-58
2021/12/17 13:28:55;;;;;;;6.97;5.33;;;9.50;99.90;;;;;;5072920;28;20209;-58
2021/12/17 13:31:54;;;;;;;8.10;4.80;;;9.30;99.90;;;;;;5072915;28;20232;-57
2021/12/17 13:34:25;;;;;;;6.57;5.80;;;9.40;99.90;;;;;;5072994;28;20224;-58
2021/12/17 13:36:56;;;;;;;6.10;5.50;;;9.30;99.90;;;;;;5072796;28;20289;-56
2021/12/17 13:39:25;;;;;;;5.90;5.30;;;9.30;99.90;;;;;;5072913;28;20217;-57
2021/12/17 13:41:53;;;;;;;5.70;5.10;;;9.30;99.90;;;;;;5072309;28;20612;-57
2021/12/17 13:44:32;;;;;;;7.73;5.93;;;9.20;99.90;;;;;;5072571;28;20716;-57
2021/12/17 13:47:15;;;;;;;6.93;6.03;;;9.20;99.90;;;;;;5072410;28;20232;-57
2021/12/17 13:49:45;;;;;;;6.60;5.90;;;9.10;99.90;;;;;;5072436;28;20217;-57
2021/12/17 13:52:13;;;;;;;10.77;6.70;;;8.90;99.90;;;;;;5072662;28;20588;-58
2021/12/17 13:54:40;;;;;;;7.73;6.87;;;8.90;99.90;;;;;;5072370;28;20739;-58
2021/12/17 13:57:11;;;;;;;7.40;6.70;;;8.80;99.90;;;;;;5072169;28;20208;-58
2021/12/17 13:59:39;;;;;;;7.90;7.10;;;8.80;99.90;;;;;;5071852;28;20565;-57
2021/12/17 14:02:12;;;;;;;8.43;7.07;;;8.80;99.90;;;;;;5072359;28;20213;-58
2021/12/17 14:04:39;;;;;;;7.53;6.73;;;8.80;99.90;;;;;;5072023;28;20781;-57
2021/12/17 14:07:07;;;;;;;7.43;6.40;;;8.80;99.90;;;;;;5072147;28;20208;-58
2021/12/17 14:09:33;;;;;;;7.80;7.00;;;8.90;99.90;;;;;;5072635;28;20254;-57
2021/12/17 14:12:12;;;;;;;7.10;6.40;;;8.90;99.90;;;;;;5072041;28;20205;-57
2021/12/17 14:14:40;;;;;;;8.00;7.07;;;8.90;99.90;;;;;;5072264;28;20278;-57
2021/12/17 14:17:09;;;;;;;7.70;6.83;;;8.80;99.90;;;;;;5072198;28;20266;-56
2021/12/17 14:19:41;;;;;;;7.27;6.50;;;8.90;99.90;;;;;;5072336;28;20616;-59
2021/12/17 14:22:25;;;;;;;7.20;6.50;;;8.80;99.90;;;;;;5072359;28;20274;-56
2021/12/17 14:24:51;;;;;;;7.30;6.60;;;8.70;99.90;;;;;;5071861;28;20256;-60
2021/12/17 14:27:18;;;;;;;8.33;6.57;;;8.70;99.90;;;;;;5072247;28;20235;-62
2021/12/17 14:29:46;;;;;;;7.30;6.37;;;8.90;99.90;;;;;;5072006;28;20270;-62
2021/12/17 14:32:17;;;;;;;7.83;7.03;;;8.90;99.90;;;;;;5072431;28;20304;-60
2021/12/17 14:34:44;;;;;;;8.00;6.93;;;8.80;99.90;;;;;;5072081;28;20311;-59
2021/12/17 14:37:11;;;;;;;7.47;6.67;;;8.70;99.90;;;;;;5071825;28;20575;-62
2021/12/17 14:39:43;;;;;;;7.60;6.87;;;8.50;99.90;;;;;;5072746;28;20291;-62
2021/12/17 14:42:12;;;;;;;8.47;7.17;;;8.40;99.90;;;;;;5072812;28;20204;-62
2021/12/17 14:44:51;;;;;;;8.53;7.10;;;8.20;99.90;;;;;;5072932;28;20224;-61
2021/12/17 14:47:23;;;;;;;8.33;7.17;;;8.10;99.90;;;;;;5072121;28;20212;-62
2021/12/17 15:01:11;;;;;;;8.13;7.33;;;7.60;99.90;;;;;;5071513;28;20427;-60
2021/12/17 15:03:42;;;;;;;8.90;7.70;;;7.60;99.90;;;;;;5071702;28;20225;-61
2021/12/17 15:06:10;;;;;;;9.77;8.70;;;7.60;99.90;;;;;;5071654;28;20205;-61
2021/12/17 15:08:37;;;;;;;10.90;7.60;;;7.70;99.90;;;;;;5071358;28;20244;-61
2021/12/17 15:11:13;;;;;;;8.75;7.85;;;7.80;99.90;;;;;;5071299;28;20457;-64
2021/12/17 15:13:40;;;;;;;9.03;7.30;;;7.90;99.90;;;;;;5071770;28;20273;-62
2021/12/17 15:16:07;;;;;;;9.80;7.60;;;8.00;99.90;;;;;;5071566;28;20205;-62
2021/12/17 15:18:33;;;;;;;9.43;7.73;;;8.10;99.90;;;;;;5071581;28;20720;-60
2021/12/17 15:21:01;;;;;;;8.13;7.30;;;8.10;99.90;;;;;;5071281;28;20208;-63
2021/12/17 15:23:28;;;;;;;12.03;8.10;;;8.20;99.90;;;;;;5071399;28;20229;-60
2021/12/17 15:25:55;;;;;;;9.37;8.00;;;8.20;99.90;;;;;;5063200;28;20702;-62
2021/12/17 15:28:25;;;;;;;9.03;7.83;;;8.20;99.90;;;;;;5071604;28;20231;-60
2021/12/17 15:30:53;;;;;;;9.97;8.20;;;8.10;99.90;;;;;;5071208;28;20271;-59
2021/12/17 15:33:20;;;;;;;10.93;8.20;;;8.00;99.90;;;;;;5071336;28;20647;-59